MMMA

Details ICAO MMMA (MAM)
Name GENERAL SERVANDO CANALES INTL
Region Mexico
Timezone America/Matamoros (UTC-5.0)
Plans Departing 6
Arriving 12
Stats Elevation 25 ft / 8 m (AMSL)
Location 25.769894° -97.525310°
Runways 1
Magnetic Variation 3.722° E
Sunrise 2018-05-22 11:42:46 UTC / 2018-05-22 06:42:46 Local
Sunset 2018-05-23 01:13:40 UTC / 2018-05-22 20:13:40 Local
Advertisement - Login to hide

Runways

ID Width Length Bearing (true) Bearing (mag) Surface Threshold Offset Overrun Length
15 151 ft / 46 m 7,585 ft / 2,312 m 156.30° 152.58° Asphalt 0 ft / 0 m 185 ft / 56 m
33 151 ft / 46 m 7,585 ft / 2,312 m 336.31° 332.59° Asphalt 0 ft / 0 m 185 ft / 56 m

Map

Weather


0- 5 10 15 20 25 30 35+ Temperature / ° C

Clouds and Precipitation
Forecast for 2018-05-22 18:00 UTC. Updated 3 hours ago

Ground ~20,000 ft ~40,000 ft Winds

METAR

MMMA 221845Z 10011KT 8SM BKN020 32/21 A2994 RMK 8/100 ISOL AC

TAF

TAF MMMA 221711Z 2218/2318 13012KT P6SM BKN025 FM222100 14015KT P6SM SCT030 FM230300 13010KT P6SM SCT015 FM231500 13015KT P6SM BKN020

Frequencies

Approach 118.00 MHz MATAMOROS APP/TWR
Warning: Do not use this data for real-world aviation or navigation. No guarantee of current accuracy is given.